AQQ10 IFIS: Internet Flight Information System
logo dgac
Martes 06 de Diciembre del 2022
Buscar por aerodromo o helipuerto
Ingrese nombre de aeródromo, localidad o designador OACI:
METAR del 06-12-2022 a las 07:00 UTC
Para mayor información visite www.meteochile.cl
METAR SCIP 060700Z 27003KT 9999 FEW025 SCT190 22/18 Q1017 NOSIG
Viento: dirección 270 grados, velocidad 3 nudos
Visibilidad: 10 km o más
Nubes: Escasa nubosidad a 2500 pies sobre el nivel del aeródromo
Nubes: Nubosidad parcial a 19000 pies sobre el nivel del aeródromo
Temperatura: 22 °C
Rocío: 18 °C
Humedad_relativa: 78%
Presión: 1017 hPa
No se esperan cambios significativos en las próximas 2 horas
METAR del 06-12-2022 a las 06:00 UTC
Para mayor información visite www.meteochile.cl
METAR SCIP 060600Z 24004KT 9999 SCT020 SCT200 22/19 Q1017 NOSIG
Viento: dirección 240 grados, velocidad 4 nudos
Visibilidad: 10 km o más
Nubes: Nubosidad parcial a 2000 pies sobre el nivel del aeródromo
Nubes: Nubosidad parcial a 20000 pies sobre el nivel del aeródromo
Temperatura: 22 °C
Rocío: 19 °C
Humedad_relativa: 83%
Presión: 1017 hPa
No se esperan cambios significativos en las próximas 2 horas
METAR del 06-12-2022 a las 05:00 UTC
Para mayor información visite www.meteochile.cl
METAR SCIP 060500Z VRB02KT 9999 FEW025 SCT200 22/18 Q1018 NOSIG
Viento: dirección variable, velocidad 2 nudos
Visibilidad: 10 km o más
Nubes: Escasa nubosidad a 2500 pies sobre el nivel del aeródromo
Nubes: Nubosidad parcial a 20000 pies sobre el nivel del aeródromo
Temperatura: 22 °C
Rocío: 18 °C
Humedad_relativa: 78%
Presión: 1018 hPa
No se esperan cambios significativos en las próximas 2 horas
METAR del 06-12-2022 a las 04:00 UTC
Para mayor información visite www.meteochile.cl
METAR SCIP 060400Z 25004KT 9999 SCT025 SCT075 BKN210 22/18 Q1017 NOSIG
Viento: dirección 250 grados, velocidad 4 nudos
Visibilidad: 10 km o más
Nubes: Nubosidad parcial a 2500 pies sobre el nivel del aeródromo
Nubes: Nubosidad parcial a 7500 pies sobre el nivel del aeródromo
Nubes: Nublado a 21000 pies sobre el nivel del aeródromo
Temperatura: 22 °C
Rocío: 18 °C
Humedad_relativa: 78%
Presión: 1017 hPa
No se esperan cambios significativos en las próximas 2 horas
METAR del 06-12-2022 a las 03:00 UTC
Para mayor información visite www.meteochile.cl
METAR SCIP 060300Z 26003KT 230V300 9999 SCT025 SCT065 23/19 Q1017 NOSIG
Viento: dirección 260 grados, velocidad 3 nudos
Viento con dirección variable entre 230 y 300 grados
Visibilidad: 10 km o más
Nubes: Nubosidad parcial a 2500 pies sobre el nivel del aeródromo
Nubes: Nubosidad parcial a 6500 pies sobre el nivel del aeródromo
Temperatura: 23 °C
Rocío: 19 °C
Humedad_relativa: 78%
Presión: 1017 hPa
No se esperan cambios significativos en las próximas 2 horas
METAR del 06-12-2022 a las 02:00 UTC
Para mayor información visite www.meteochile.cl
METAR SCIP 060200Z 27007KT 230V290 9999 SCT030 SCT060 23/19 Q1016 NOSIG
Viento: dirección 270 grados, velocidad 7 nudos
Viento con dirección variable entre 230 y 290 grados
Visibilidad: 10 km o más
Nubes: Nubosidad parcial a 3000 pies sobre el nivel del aeródromo
Nubes: Nubosidad parcial a 6000 pies sobre el nivel del aeródromo
Temperatura: 23 °C
Rocío: 19 °C
Humedad_relativa: 78%
Presión: 1016 hPa
No se esperan cambios significativos en las próximas 2 horas
METAR del 06-12-2022 a las 01:00 UTC
Para mayor información visite www.meteochile.cl
METAR SCIP 060100Z 28007KT 9999 SCT025 24/18 Q1016 NOSIG
Viento: dirección 280 grados, velocidad 7 nudos
Visibilidad: 10 km o más
Nubes: Nubosidad parcial a 2500 pies sobre el nivel del aeródromo
Temperatura: 24 °C
Rocío: 18 °C
Humedad_relativa: 69%
Presión: 1016 hPa
No se esperan cambios significativos en las próximas 2 horas
METAR del 06-12-2022 a las 00:00 UTC
Para mayor información visite www.meteochile.cl
METAR SCIP 060000Z 28008KT 240V330 9999 SCT025 26/18 Q1016 NOSIG
Viento: dirección 280 grados, velocidad 8 nudos
Viento con dirección variable entre 240 y 330 grados
Visibilidad: 10 km o más
Nubes: Nubosidad parcial a 2500 pies sobre el nivel del aeródromo
Temperatura: 26 °C
Rocío: 18 °C
Humedad_relativa: 61%
Presión: 1016 hPa
No se esperan cambios significativos en las próximas 2 horas
METAR del 05-12-2022 a las 23:00 UTC
Para mayor información visite www.meteochile.cl
METAR SCIP 052300Z 29009KT 230V330 9999 SCT025 26/18 Q1016 NOSIG
Viento: dirección 290 grados, velocidad 9 nudos
Viento con dirección variable entre 230 y 330 grados
Visibilidad: 10 km o más
Nubes: Nubosidad parcial a 2500 pies sobre el nivel del aeródromo
Temperatura: 26 °C
Rocío: 18 °C
Humedad_relativa: 61%
Presión: 1016 hPa
No se esperan cambios significativos en las próximas 2 horas
METAR del 05-12-2022 a las 22:00 UTC
Para mayor información visite www.meteochile.cl
METAR SCIP 052200Z 28008KT 210V330 9999 SCT025 26/18 Q1016 NOSIG
Viento: dirección 280 grados, velocidad 8 nudos
Viento con dirección variable entre 210 y 330 grados
Visibilidad: 10 km o más
Nubes: Nubosidad parcial a 2500 pies sobre el nivel del aeródromo
Temperatura: 26 °C
Rocío: 18 °C
Humedad_relativa: 61%
Presión: 1016 hPa
No se esperan cambios significativos en las próximas 2 horas